createdAt,value
2023-05-04T00:01:11.476Z,3.93
2023-05-04T00:03:39.346Z,3.70
2023-05-04T00:06:06.517Z,4.67
2023-05-04T00:08:36.424Z,3.77
2023-05-04T00:11:03.554Z,4.20
2023-05-04T00:13:30.802Z,4.17
2023-05-04T00:15:58.414Z,4.00
2023-05-04T00:18:25.372Z,3.80
2023-05-04T00:20:52.544Z,3.77
2023-05-04T00:23:22.414Z,4.60
2023-05-04T00:25:49.787Z,4.63
2023-05-04T00:28:16.786Z,4.70
2023-05-04T00:30:48.664Z,4.33
2023-05-04T00:33:20.456Z,3.70
2023-05-04T00:35:50.405Z,4.90
2023-05-04T00:38:19.139Z,3.83
2023-05-04T00:40:46.383Z,3.87
2023-05-04T00:43:13.611Z,4.23
2023-05-04T00:45:41.947Z,3.87
2023-05-04T00:48:09.032Z,3.70
2023-05-04T00:50:36.372Z,3.87
2023-05-04T00:53:11.037Z,4.13
2023-05-04T00:55:41.144Z,4.40
2023-05-04T00:58:10.474Z,4.60
2023-05-04T01:00:37.724Z,4.67
2023-05-04T01:03:04.943Z,4.13
2023-05-04T01:05:43.488Z,3.77
2023-05-04T01:08:15.952Z,4.10
2023-05-04T01:10:42.901Z,3.80
2023-05-04T01:13:19.193Z,3.50
2023-05-04T01:15:46.920Z,3.97
2023-05-04T01:18:14.379Z,4.60
2023-05-04T01:20:44.041Z,4.30
2023-05-04T01:23:11.672Z,3.73
2023-05-04T01:26:04.146Z,4.30
2023-05-04T01:29:26.063Z,4.47
2023-05-04T01:31:54.175Z,4.30
2023-05-04T01:34:22.906Z,3.87
2023-05-04T01:36:53.199Z,3.87
2023-05-04T01:39:21.102Z,3.97
2023-05-04T01:41:50.329Z,4.40
2023-05-04T01:44:17.547Z,4.00
2023-05-04T01:46:44.822Z,4.07
2023-05-04T01:49:11.939Z,4.53
2023-05-04T01:51:39.298Z,3.77
2023-05-04T01:54:06.497Z,4.80
2023-05-04T01:56:33.663Z,3.93
2023-05-04T01:59:00.920Z,4.00
2023-05-04T02:01:28.189Z,3.90
2023-05-04T02:03:58.006Z,4.50
2023-05-04T02:06:25.462Z,4.50
2023-05-04T02:08:54.958Z,4.00
2023-05-04T02:11:22.225Z,4.30
2023-05-04T02:13:51.489Z,4.50
2023-05-04T02:16:18.861Z,4.97
2023-05-04T02:18:46.654Z,5.10
2023-05-04T02:21:14.149Z,4.67
2023-05-04T02:23:43.740Z,4.47
2023-05-04T02:26:11.632Z,4.90
2023-05-04T02:28:39.155Z,5.20
2023-05-04T02:31:06.462Z,4.20
2023-05-04T02:33:33.677Z,5.00
2023-05-04T02:36:03.277Z,4.80
2023-05-04T02:38:30.940Z,4.70
2023-05-04T02:41:03.066Z,5.33
2023-05-04T02:43:32.578Z,5.50
2023-05-04T02:45:59.914Z,5.13
2023-05-04T02:48:27.318Z,4.50
2023-05-04T02:50:55.365Z,5.03
2023-05-04T02:53:23.269Z,4.70
2023-05-04T02:55:51.085Z,4.90
2023-05-04T02:58:18.069Z,4.70
2023-05-04T03:00:47.629Z,5.10
2023-05-04T03:03:17.426Z,5.23
2023-05-04T03:05:45.736Z,4.97
2023-05-04T03:08:12.986Z,5.70
2023-05-04T03:10:43.101Z,5.50
2023-05-04T03:13:15.506Z,4.83
2023-05-04T03:15:43.361Z,5.17
2023-05-04T03:18:12.619Z,4.97
2023-05-04T03:20:43.149Z,4.63
2023-05-04T03:23:10.935Z,4.60
2023-05-04T03:25:38.297Z,4.83
2023-05-04T03:28:09.523Z,5.10
2023-05-04T03:30:46.324Z,4.43
2023-05-04T03:33:15.979Z,5.30
2023-05-04T03:35:43.172Z,5.27
2023-05-04T03:38:11.496Z,4.70
2023-05-04T03:40:41.260Z,5.10
2023-05-04T03:43:09.122Z,4.50
2023-05-04T03:45:36.998Z,5.33
2023-05-04T03:48:06.542Z,4.90
2023-05-04T03:50:33.883Z,5.10
2023-05-04T03:53:06.166Z,5.30
2023-05-04T03:55:36.051Z,4.27
2023-05-04T03:58:04.021Z,5.27
2023-05-04T04:00:33.504Z,5.00
2023-05-04T04:03:00.845Z,4.67
2023-05-04T04:05:28.392Z,4.30
2023-05-04T04:07:58.580Z,4.50
2023-05-04T04:10:30.927Z,4.20
2023-05-04T04:12:58.147Z,4.50
2023-05-04T04:15:25.349Z,4.70
2023-05-04T04:17:59.320Z,4.70
2023-05-04T04:20:26.518Z,5.00
2023-05-04T04:22:54.348Z,4.63
2023-05-04T04:25:21.483Z,5.23
2023-05-04T04:27:48.819Z,4.97
2023-05-04T04:30:16.839Z,5.37
2023-05-04T04:32:44.208Z,5.63
2023-05-04T04:35:14.316Z,5.03
2023-05-04T04:37:41.839Z,5.33
2023-05-04T04:40:10.370Z,4.60
2023-05-04T04:42:38.038Z,5.53
2023-05-04T04:45:06.063Z,5.40
2023-05-04T04:47:34.094Z,4.77
2023-05-04T04:50:06.174Z,4.50
2023-05-04T04:52:39.036Z,5.10
2023-05-04T04:55:09.123Z,4.00
2023-05-04T04:57:36.394Z,4.63
2023-05-04T05:00:08.698Z,4.60
2023-05-04T05:02:38.055Z,4.50
2023-05-04T05:05:08.373Z,9.30
2023-05-04T05:07:36.467Z,5.40
2023-05-04T05:10:04.632Z,4.13
2023-05-04T05:12:34.955Z,4.63
2023-05-04T05:15:04.788Z,4.13
2023-05-04T05:17:32.359Z,3.90
2023-05-04T05:19:59.382Z,4.30
2023-05-04T05:22:29.153Z,4.93
2023-05-04T05:24:56.847Z,4.00
2023-05-04T05:27:26.745Z,4.20
2023-05-04T05:29:54.236Z,4.20
2023-05-04T05:32:21.524Z,3.83
2023-05-04T05:34:48.906Z,3.60
2023-05-04T05:37:18.168Z,3.77
2023-05-04T05:39:47.521Z,4.60
2023-05-04T05:42:17.103Z,3.93
2023-05-04T05:44:46.998Z,4.53
2023-05-04T05:47:14.651Z,3.20
2023-05-04T05:49:46.452Z,4.10
2023-05-04T05:52:18.532Z,4.27
2023-05-04T05:54:48.997Z,3.40
2023-05-04T05:57:16.023Z,3.77
2023-05-04T05:59:46.034Z,3.40
2023-05-04T06:02:18.297Z,2.63
2023-05-04T06:04:45.808Z,3.10
2023-05-04T06:07:13.891Z,3.13
2023-05-04T06:09:40.981Z,3.03
2023-05-04T06:12:15.170Z,2.77
2023-05-04T06:14:44.480Z,3.37
2023-05-04T06:17:14.114Z,2.90
2023-05-04T06:19:47.536Z,3.40
2023-05-04T06:22:18.578Z,2.60
2023-05-04T06:24:46.561Z,2.63
2023-05-04T06:27:13.805Z,2.70
2023-05-04T06:29:43.611Z,3.70
2023-05-04T06:32:11.204Z,3.57
2023-05-04T06:34:41.503Z,3.40
2023-05-04T06:37:14.015Z,2.90
2023-05-04T06:39:42.150Z,3.37
2023-05-04T06:42:14.014Z,3.10
2023-05-04T06:44:41.577Z,3.40
2023-05-04T06:47:08.642Z,3.23
2023-05-04T06:49:36.168Z,3.03
2023-05-04T06:52:06.689Z,3.43
2023-05-04T06:54:33.794Z,2.80
2023-05-04T06:57:04.912Z,3.00
2023-05-04T06:59:32.332Z,2.70
2023-05-04T07:01:59.484Z,2.80
2023-05-04T07:04:26.910Z,3.17
2023-05-04T07:06:54.206Z,2.53
2023-05-04T07:09:26.225Z,3.20
2023-05-04T07:11:53.358Z,3.00
2023-05-04T07:14:22.016Z,3.00
2023-05-04T07:16:49.368Z,3.20
2023-05-04T07:19:16.685Z,3.37
2023-05-04T07:21:43.843Z,2.70
2023-05-04T07:24:13.252Z,3.30
2023-05-04T07:26:40.591Z,3.13
2023-05-04T07:29:07.967Z,3.83
2023-05-04T07:31:36.519Z,3.10
2023-05-04T07:34:06.125Z,3.47
2023-05-04T07:36:42.029Z,2.00
2023-05-04T07:39:13.582Z,3.13
2023-05-04T07:41:40.981Z,2.77
2023-05-04T07:44:11.568Z,2.80
2023-05-04T07:46:39.635Z,2.90
2023-05-04T07:49:09.034Z,2.90
2023-05-04T07:51:36.385Z,3.17
2023-05-04T07:54:03.953Z,2.87
2023-05-04T07:56:31.308Z,2.90
2023-05-04T07:59:01.254Z,2.50
2023-05-04T08:01:32.921Z,2.47
2023-05-04T08:04:02.292Z,3.03
2023-05-04T08:06:31.692Z,3.20
2023-05-04T08:08:58.929Z,2.87
2023-05-04T08:11:26.798Z,2.57
2023-05-04T08:13:54.184Z,2.80
2023-05-04T08:16:23.500Z,2.50
2023-05-04T08:18:50.719Z,2.97
2023-05-04T08:21:20.003Z,3.20
2023-05-04T08:23:49.890Z,2.83
2023-05-04T08:26:17.203Z,3.07
2023-05-04T08:28:47.399Z,2.83
2023-05-04T08:31:14.458Z,3.37
2023-05-04T08:33:41.444Z,3.00
2023-05-04T08:36:11.292Z,2.70
2023-05-04T08:38:38.406Z,2.83
2023-05-04T08:41:06.538Z,3.07
2023-05-04T08:43:37.557Z,2.87
2023-05-04T08:46:05.655Z,3.23
2023-05-04T08:48:36.988Z,2.70
2023-05-04T08:51:08.923Z,2.93
2023-05-04T08:53:41.178Z,2.90
2023-05-04T08:56:16.294Z,2.87
2023-05-04T08:58:53.298Z,2.80
2023-05-04T09:01:21.967Z,2.50
2023-05-04T09:03:49.585Z,2.57
2023-05-04T09:06:17.470Z,2.80
2023-05-04T09:08:44.729Z,2.80
2023-05-04T09:11:12.007Z,2.40
2023-05-04T09:13:43.020Z,3.37
2023-05-04T09:16:10.798Z,3.10
2023-05-04T09:18:40.436Z,2.50
2023-05-04T09:21:08.183Z,2.90
2023-05-04T09:23:50.326Z,2.83
2023-05-04T09:26:39.147Z,2.50
2023-05-04T09:29:16.090Z,2.77
2023-05-04T09:31:52.507Z,3.00
2023-05-04T09:34:23.028Z,2.67
2023-05-04T09:37:03.063Z,2.60
2023-05-04T09:39:30.929Z,2.33
2023-05-04T09:42:01.923Z,2.20
2023-05-04T09:44:29.947Z,2.27
2023-05-04T09:47:01.509Z,2.53
2023-05-04T09:49:39.078Z,2.63
2023-05-04T09:52:07.324Z,2.20
2023-05-04T09:54:36.330Z,2.60
2023-05-04T09:57:23.628Z,2.53
2023-05-04T09:59:55.089Z,2.23
2023-05-04T10:02:23.580Z,2.27
2023-05-04T10:04:58.231Z,2.53
2023-05-04T10:07:26.103Z,1.97
2023-05-04T10:09:54.032Z,3.03
2023-05-04T10:12:23.533Z,2.87
2023-05-04T10:14:50.843Z,2.23
2023-05-04T10:17:48.960Z,2.50
2023-05-04T10:20:44.159Z,2.30
2023-05-04T10:23:20.515Z,2.70
2023-05-04T10:25:54.586Z,2.13
2023-05-04T10:28:39.761Z,2.57
2023-05-04T10:31:07.598Z,2.30
2023-05-04T10:33:45.552Z,2.40
2023-05-04T10:36:17.156Z,2.83
2023-05-04T10:38:44.125Z,2.50
2023-05-04T10:41:22.062Z,2.60
2023-05-04T10:44:03.493Z,2.27
2023-05-04T10:46:30.531Z,2.53
2023-05-04T10:48:57.857Z,2.57
2023-05-04T10:51:32.598Z,2.70
2023-05-04T10:54:08.578Z,2.20
2023-05-04T10:56:36.085Z,2.53
2023-05-04T10:59:17.473Z,2.93
2023-05-04T11:01:45.330Z,2.97
2023-05-04T11:04:24.839Z,2.63
2023-05-04T11:07:06.506Z,2.20
2023-05-04T11:09:44.638Z,2.57
2023-05-04T11:12:15.477Z,2.70
2023-05-04T11:14:43.290Z,2.33
2023-05-04T11:19:52.922Z,2.23
2023-05-04T11:22:20.595Z,2.33
2023-05-04T11:24:51.520Z,2.07
2023-05-04T11:27:29.908Z,2.30
2023-05-04T11:30:05.540Z,2.20
2023-05-04T11:32:46.634Z,2.67
2023-05-04T11:35:20.107Z,2.03
2023-05-04T11:37:50.919Z,2.77
2023-05-04T11:40:26.924Z,2.70
2023-05-04T11:42:57.399Z,2.27
2023-05-04T11:45:33.052Z,3.00
2023-05-04T11:48:05.741Z,1.80
2023-05-04T11:50:33.188Z,2.20
2023-05-04T11:53:12.154Z,3.20
2023-05-04T11:55:39.476Z,2.40
2023-05-04T11:58:09.908Z,2.13
2023-05-04T12:00:49.179Z,2.40
2023-05-04T12:03:50.912Z,2.83
2023-05-04T12:06:19.428Z,2.10
2023-05-04T12:08:48.987Z,2.50
2023-05-04T12:11:25.819Z,2.27
2023-05-04T12:14:07.713Z,2.20
2023-05-04T12:16:35.228Z,2.30
2023-05-04T12:19:13.414Z,2.33
2023-05-04T12:21:58.700Z,2.87
2023-05-04T12:24:27.973Z,2.30
2023-05-04T12:26:55.153Z,2.70
2023-05-04T12:29:29.655Z,2.50
2023-05-04T12:31:56.884Z,2.93
2023-05-04T12:34:24.061Z,2.23
2023-05-04T12:36:53.428Z,2.80
2023-05-04T12:39:20.960Z,2.57
2023-05-04T12:41:47.916Z,2.27
2023-05-04T12:44:15.126Z,2.07
2023-05-04T12:46:44.603Z,2.57
2023-05-04T12:49:14.940Z,3.20
2023-05-04T12:51:42.090Z,2.37
2023-05-04T12:54:11.470Z,2.50
2023-05-04T12:56:39.880Z,2.37
2023-05-04T12:59:09.856Z,2.20
2023-05-04T13:01:37.159Z,2.57
2023-05-04T13:04:04.574Z,2.40
2023-05-04T13:06:33.969Z,2.60
2023-05-04T13:09:06.024Z,2.70
2023-05-04T13:11:33.432Z,2.60
2023-05-04T13:14:01.055Z,2.60
2023-05-04T13:16:30.948Z,2.17
2023-05-04T13:18:58.796Z,2.60
2023-05-04T13:21:27.988Z,2.70
2023-05-04T13:23:59.323Z,2.20
2023-05-04T13:26:26.781Z,2.43
2023-05-04T13:28:54.022Z,2.70
2023-05-04T13:31:23.697Z,2.20
2023-05-04T13:33:50.706Z,2.60
2023-05-04T13:36:18.200Z,2.23
2023-05-04T13:38:48.085Z,2.43
2023-05-04T13:41:15.072Z,2.80
2023-05-04T13:43:47.026Z,2.63
2023-05-04T13:46:14.239Z,2.40
2023-05-04T13:48:44.334Z,2.40
2023-05-04T13:51:13.671Z,2.60
2023-05-04T13:53:40.879Z,2.20
2023-05-04T13:56:08.156Z,1.93
2023-05-04T13:58:37.734Z,2.30
2023-05-04T14:01:05.063Z,2.20
2023-05-04T14:03:33.000Z,2.77
2023-05-04T14:06:00.156Z,2.67
2023-05-04T14:08:29.713Z,2.40
2023-05-04T14:10:57.613Z,2.40
2023-05-04T14:13:25.108Z,2.80
2023-05-04T14:15:54.760Z,2.23
2023-05-04T14:18:22.101Z,2.57
2023-05-04T14:20:51.510Z,2.00
2023-05-04T14:23:21.069Z,2.60
2023-05-04T14:25:57.015Z,1.77
2023-05-04T14:28:27.141Z,2.10
2023-05-04T14:30:54.168Z,2.50
2023-05-04T14:33:23.743Z,2.37
2023-05-04T14:35:57.864Z,2.20
2023-05-04T14:38:24.830Z,2.50
2023-05-04T14:40:55.483Z,2.23
2023-05-04T14:43:24.943Z,2.60
2023-05-04T14:45:53.268Z,2.20
2023-05-04T14:48:23.088Z,3.13
2023-05-04T14:50:53.630Z,2.40
2023-05-04T14:53:21.879Z,2.80
2023-05-04T14:55:51.479Z,2.10
2023-05-04T14:58:18.749Z,2.23
2023-05-04T15:00:51.926Z,2.10
2023-05-04T15:03:22.058Z,2.40
2023-05-04T15:05:53.986Z,2.30
2023-05-04T15:08:21.013Z,2.37
2023-05-04T15:10:52.624Z,2.40
2023-05-04T15:13:20.033Z,2.10
2023-05-04T15:15:49.453Z,2.30
2023-05-04T15:18:16.466Z,3.13
2023-05-04T15:20:43.543Z,2.40
2023-05-04T15:23:10.851Z,2.57
2023-05-04T15:25:41.913Z,1.90
2023-05-04T15:28:11.965Z,2.50
2023-05-04T15:30:45.020Z,2.30
2023-05-04T15:33:12.011Z,2.40
2023-05-04T15:35:40.392Z,1.80
2023-05-04T15:38:07.424Z,2.07
2023-05-04T15:40:34.531Z,2.77
2023-05-04T15:43:01.590Z,2.40
2023-05-04T15:45:28.558Z,2.33
2023-05-04T15:47:58.495Z,2.87
2023-05-04T15:50:26.194Z,2.57
2023-05-04T15:52:53.598Z,2.70
2023-05-04T15:55:26.409Z,2.70
2023-05-04T15:57:56.251Z,2.50
2023-05-04T16:00:23.946Z,3.90
2023-05-04T16:02:53.683Z,3.10
2023-05-04T16:05:26.215Z,2.60
2023-05-04T16:07:53.862Z,2.27
2023-05-04T16:10:23.656Z,2.67
2023-05-04T16:12:50.962Z,2.60
2023-05-04T16:15:18.037Z,2.63
2023-05-04T16:17:45.100Z,2.60
2023-05-04T16:20:12.269Z,2.30
2023-05-04T16:22:39.339Z,2.87
2023-05-04T16:25:08.856Z,2.80
2023-05-04T16:27:39.785Z,2.70
2023-05-04T16:30:08.179Z,2.60
2023-05-04T16:32:35.889Z,2.27
2023-05-04T16:35:06.355Z,2.50
2023-05-04T16:37:37.070Z,2.27
2023-05-04T16:40:15.068Z,2.40
2023-05-04T16:42:45.534Z,2.23
2023-05-04T16:45:13.736Z,2.20
2023-05-04T16:47:44.691Z,3.90
2023-05-04T16:50:13.332Z,2.53
2023-05-04T16:52:40.503Z,2.67
2023-05-04T16:55:11.889Z,1.93
2023-05-04T16:57:41.913Z,2.30
2023-05-04T17:00:13.752Z,2.30
2023-05-04T17:02:40.950Z,3.00
2023-05-04T17:05:10.375Z,2.33
2023-05-04T17:07:43.341Z,2.80
2023-05-04T17:10:14.734Z,2.37
2023-05-04T17:12:49.024Z,2.30
2023-05-04T17:15:16.276Z,2.63
2023-05-04T17:17:44.787Z,2.63
2023-05-04T17:20:16.879Z,3.50
2023-05-04T17:22:47.794Z,2.50
2023-05-04T17:25:15.345Z,1.90
2023-05-04T17:27:44.022Z,2.50
2023-05-04T17:30:12.211Z,2.73
2023-05-04T17:32:42.483Z,2.70
2023-05-04T17:35:24.158Z,2.73
2023-05-04T17:37:58.863Z,3.40
2023-05-04T17:40:30.344Z,2.70
2023-05-04T17:43:00.764Z,2.20
2023-05-04T17:45:30.778Z,2.47
2023-05-04T17:47:59.041Z,2.50
2023-05-04T17:50:29.174Z,3.00
2023-05-04T17:52:56.554Z,2.53
2023-05-04T17:55:31.066Z,2.70
2023-05-04T17:57:58.326Z,2.70
2023-05-04T18:00:28.440Z,2.93
2023-05-04T18:02:55.857Z,2.87
2023-05-04T18:05:23.061Z,4.90
2023-05-04T18:07:52.672Z,3.80
2023-05-04T18:10:20.575Z,3.90
2023-05-04T18:12:48.149Z,4.20
2023-05-04T18:15:16.505Z,4.13
2023-05-04T18:17:53.571Z,4.10
2023-05-04T18:20:20.782Z,4.63
2023-05-04T18:22:50.063Z,4.50
2023-05-04T18:25:17.360Z,3.63
2023-05-04T18:27:48.943Z,4.70
2023-05-04T18:30:15.941Z,4.77
2023-05-04T18:32:43.161Z,4.60
2023-05-04T18:35:13.196Z,4.10
2023-05-04T18:37:43.235Z,4.30
2023-05-04T18:40:11.279Z,5.07
2023-05-04T18:42:38.672Z,4.20
2023-05-04T18:45:07.950Z,4.03
2023-05-04T18:47:35.770Z,5.00
2023-05-04T18:50:02.939Z,5.40
2023-05-04T18:52:32.948Z,5.00
2023-05-04T18:55:00.515Z,5.87
2023-05-04T18:57:29.421Z,5.33
2023-05-04T19:00:01.089Z,6.33
2023-05-04T19:02:30.204Z,4.80
2023-05-04T19:04:58.103Z,5.20
2023-05-04T19:07:25.223Z,4.63
2023-05-04T19:09:53.325Z,4.90
2023-05-04T19:12:25.274Z,4.83
2023-05-04T19:14:58.088Z,5.13
2023-05-04T19:17:29.301Z,4.73
2023-05-04T19:19:57.086Z,5.50
2023-05-04T19:22:27.723Z,5.57
2023-05-04T19:24:56.209Z,5.60
2023-05-04T19:27:26.149Z,6.00
2023-05-04T19:29:56.193Z,6.93
2023-05-04T19:32:28.558Z,6.30
2023-05-04T19:34:55.995Z,5.77
2023-05-04T19:37:23.131Z,5.33
2023-05-04T19:39:50.828Z,5.60
2023-05-04T19:42:19.684Z,5.03
2023-05-04T19:44:47.448Z,4.60
2023-05-04T19:47:14.375Z,5.57
2023-05-04T19:49:47.805Z,5.17
2023-05-04T19:52:17.521Z,5.43
2023-05-04T19:54:48.379Z,5.00
2023-05-04T19:57:18.192Z,5.47
2023-05-04T19:59:47.958Z,5.53
2023-05-04T20:02:15.165Z,6.03
2023-05-04T20:04:47.581Z,5.00
2023-05-04T20:07:18.734Z,4.77
2023-05-04T20:09:46.116Z,5.60
2023-05-04T20:12:15.506Z,5.00
2023-05-04T20:14:47.604Z,5.40
2023-05-04T20:17:15.554Z,5.10
2023-05-04T20:19:43.310Z,5.60
2023-05-04T20:22:11.061Z,4.63
2023-05-04T20:24:38.441Z,5.20
2023-05-04T20:27:08.454Z,4.70
2023-05-04T20:29:36.112Z,4.53
2023-05-04T20:32:05.803Z,4.70
2023-05-04T20:34:33.409Z,4.50
2023-05-04T20:37:00.621Z,5.27
2023-05-04T20:39:28.156Z,4.27
2023-05-04T20:42:00.888Z,4.20
2023-05-04T20:44:28.137Z,5.03
2023-05-04T20:46:57.755Z,5.20
2023-05-04T20:49:24.981Z,4.43
2023-05-04T20:51:54.392Z,4.30
2023-05-04T20:54:21.583Z,3.83
2023-05-04T20:56:50.983Z,4.80
2023-05-04T20:59:18.186Z,4.33
2023-05-04T21:01:47.777Z,5.07
2023-05-04T21:04:15.322Z,3.63
2023-05-04T21:06:42.422Z,4.03
2023-05-04T21:09:10.670Z,4.57
2023-05-04T21:11:40.867Z,3.80
2023-05-04T21:14:09.919Z,3.80
2023-05-04T21:16:39.122Z,3.90
2023-05-04T21:19:06.290Z,4.07
2023-05-04T21:21:40.710Z,3.90
2023-05-04T21:24:14.890Z,4.03
2023-05-04T21:26:42.751Z,3.63
2023-05-04T21:29:16.010Z,4.33
2023-05-04T21:31:43.530Z,4.70
2023-05-04T21:34:10.674Z,4.07
2023-05-04T21:36:39.136Z,3.90
2023-05-04T21:39:09.431Z,3.87
2023-05-04T21:41:39.442Z,4.23
2023-05-04T21:44:09.004Z,3.87
2023-05-04T21:46:38.430Z,4.40
2023-05-04T21:49:05.562Z,4.10
2023-05-04T21:51:34.976Z,3.47
2023-05-04T21:54:04.862Z,3.50
2023-05-04T21:56:32.227Z,3.00
2023-05-04T21:58:59.371Z,3.60
2023-05-04T22:01:29.340Z,3.80
2023-05-04T22:03:58.993Z,3.60
2023-05-04T22:06:25.994Z,3.77
2023-05-04T22:08:53.193Z,4.10
2023-05-04T22:11:20.464Z,3.27
2023-05-04T22:13:47.908Z,3.30
2023-05-04T22:16:15.116Z,3.83
2023-05-04T22:18:47.347Z,3.23
2023-05-04T22:21:14.565Z,3.00
2023-05-04T22:23:43.828Z,3.63
2023-05-04T22:26:15.405Z,3.93
2023-05-04T22:28:42.698Z,3.10
2023-05-04T22:31:09.997Z,2.80
2023-05-04T22:33:39.673Z,3.33
2023-05-04T22:36:12.607Z,4.73
2023-05-04T22:38:39.881Z,3.93
2023-05-04T22:41:09.484Z,4.10
2023-05-04T22:43:39.308Z,4.10
2023-05-04T22:46:14.230Z,2.97
2023-05-04T22:48:43.891Z,3.30
2023-05-04T22:51:13.542Z,3.37
2023-05-04T22:53:40.979Z,3.30
2023-05-04T22:56:10.440Z,3.30
2023-05-04T22:58:37.670Z,3.50
2023-05-04T23:01:10.539Z,3.07
2023-05-04T23:03:38.952Z,3.50
2023-05-04T23:06:06.505Z,3.63
2023-05-04T23:08:36.455Z,3.40
2023-05-04T23:11:03.700Z,3.40
2023-05-04T23:13:31.004Z,3.50
2023-05-04T23:16:01.253Z,4.03
2023-05-04T23:18:28.543Z,3.17
2023-05-04T23:20:58.131Z,3.30
2023-05-04T23:23:25.425Z,3.57
2023-05-04T23:25:52.673Z,3.50
2023-05-04T23:28:20.008Z,3.30
2023-05-04T23:30:47.128Z,2.93
2023-05-04T23:33:14.412Z,3.33
2023-05-04T23:35:41.795Z,3.23
2023-05-04T23:38:09.014Z,3.40
2023-05-04T23:40:36.073Z,2.57
2023-05-04T23:43:03.612Z,3.60
2023-05-04T23:45:30.863Z,3.57
2023-05-04T23:48:00.259Z,3.60
2023-05-04T23:50:29.497Z,3.23
2023-05-04T23:52:59.299Z,3.77
2023-05-04T23:55:27.009Z,3.33
2023-05-04T23:57:56.595Z,3.50
